Terminal Aerodrome Forecast
Issued by NWS

Home | Current Version | Previous Version | Text Only | Print | Product List | Glossary Off
Versions: 1 2 3 4 5 6 7 8 9 10 11 12 13 14 15 16 17 18 19 20 21 22 23 24 25 26 27

000
FTUS43 KGRB 301127
TAFRHI
TAF
KRHI 301127Z 3012/0112 36007KT 6SM BR SCT009 OVC020
      TEMPO 3012/3015 4SM -DZ BR BKN009
     FM301500 35007KT P6SM SCT015 BKN025
     FM301900 36009KT P6SM BKN035
     FM302200 36005KT P6SM SCT040
     FM010200 VRB03KT P6SM SKC=

USA.gov is the U.S. government's official web portal to all federal, state and local government web resources and services.